Cayuga, Indiana
Current Conditions -  °F | °C
As of 8:35 PM on Thursday 18 Dec 2014 (Local Time) from KDNV Reporting Station
Overcast Overcast  
Wind Chill: 21°   Ceiling: 1500
Heat Index: 27°   Visibility: 10mi
Dew Point: 23°   Wind: 6mph
Humidity: 83%   Direction: 350°N
Pressure: 30.23"   Gusts: NA
Location:  39.95°N, 87.46°W
Report Text: KDNV 190135Z AUTO 35005KT 10SM OVC015 M03/M05 A3023 RMK AO2 T10261052
Loading
Personal Weather Stations






























Interactive Weather Map New forecast layout! Learn more

10-Day Weather Forecast

Advertisements
Track Severe Weather on mobile